createdAt,value
2016-10-24T09:29:56.624Z,14.15
2016-10-24T09:30:56.773Z,14.1
2016-10-24T09:31:56.466Z,14.04
2016-10-24T09:32:56.460Z,14.06
2016-10-24T09:33:56.466Z,14.14
2016-10-24T09:34:56.456Z,14.14
2016-10-24T09:35:56.446Z,14.1
2016-10-24T09:36:56.436Z,14.15
2016-10-24T09:37:56.439Z,14.24
2016-10-24T09:38:56.433Z,14.32
2016-10-24T09:39:56.728Z,14.21
2016-10-24T09:40:56.433Z,14.28
2016-10-24T09:41:56.427Z,14.18
2016-10-24T09:42:56.415Z,14.14
2016-10-24T09:43:56.413Z,14.09
2016-10-24T09:44:56.408Z,14.09
2016-10-24T09:45:56.409Z,14.04
2016-10-24T09:46:56.398Z,13.89
2016-10-24T09:47:56.397Z,13.73
2016-10-24T09:48:56.387Z,13.6
2016-10-24T09:49:56.387Z,13.26
2016-10-24T09:50:56.387Z,13.11
2016-10-24T09:51:56.384Z,13.05
2016-10-24T09:52:56.370Z,12.82
2016-10-24T09:53:57.520Z,12.75
2016-10-24T09:54:56.365Z,12.64
2016-10-24T09:55:57.217Z,12.64
2016-10-24T09:56:57.716Z,12.57
2016-10-24T09:57:57.071Z,12.59
2016-10-24T09:58:56.350Z,12.74
2016-10-24T09:59:56.337Z,12.82
2016-10-24T10:00:56.338Z,13.05
2016-10-24T10:01:56.329Z,13.15
2016-10-24T10:02:56.789Z,13.32
2016-10-24T10:03:56.324Z,13.51
2016-10-24T10:04:57.587Z,13.81
2016-10-24T10:05:56.313Z,13.97
2016-10-24T10:06:56.303Z,13.95
2016-10-24T10:07:56.306Z,13.84
2016-10-24T10:08:56.334Z,14
2016-10-24T10:09:56.401Z,14.12
2016-10-24T10:10:56.290Z,14.22
2016-10-24T10:11:56.283Z,14.45
2016-10-24T10:12:56.280Z,14.65
2016-10-24T10:13:56.270Z,14.8
2016-10-24T10:14:56.267Z,14.84
2016-10-24T10:15:56.272Z,14.89
2016-10-24T10:16:56.259Z,15.06
2016-10-24T10:17:56.258Z,15.09
2016-10-24T10:18:56.261Z,15.07
2016-10-24T10:19:56.248Z,15.03
2016-10-24T10:20:56.244Z,14.98
2016-10-24T10:21:56.244Z,14.83
2016-10-24T10:22:56.244Z,14.75
2016-10-24T10:23:56.240Z,14.68
2016-10-24T10:24:56.234Z,14.5
2016-10-24T10:25:56.535Z,14.33
2016-10-24T10:26:56.218Z,14.21
2016-10-24T10:27:56.215Z,14.27
2016-10-24T10:28:57.016Z,14.27
2016-10-24T10:29:57.515Z,14.22
2016-10-24T10:30:56.507Z,14.15
2016-10-24T10:31:56.209Z,14.24
2016-10-24T10:32:56.571Z,14.29
2016-10-24T10:33:56.844Z,14.21
2016-10-24T10:34:56.185Z,14.32
2016-10-24T10:35:56.187Z,14.37
2016-10-24T10:36:56.185Z,14.45
2016-10-24T10:38:56.823Z,14.64
2016-10-24T10:41:56.167Z,14.64
2016-10-24T10:42:56.261Z,14.72
2016-10-24T10:43:56.153Z,14.69
2016-10-24T10:44:56.148Z,14.72
2016-10-24T10:45:56.143Z,14.6
2016-10-24T10:46:56.148Z,14.47
2016-10-24T10:47:56.440Z,14.46
2016-10-24T10:48:56.127Z,14.36
2016-10-24T10:49:56.130Z,14.43
2016-10-24T10:50:56.126Z,14.37
2016-10-24T10:51:56.113Z,14.29
2016-10-24T10:52:56.115Z,14.07
2016-10-24T10:53:56.587Z,13.92
2016-10-24T10:54:56.103Z,13.71
2016-10-24T10:55:56.103Z,13.49
2016-10-24T10:56:56.091Z,13.25
2016-10-24T10:57:56.091Z,13.05
2016-10-24T10:58:56.133Z,12.83
2016-10-24T10:59:56.089Z,12.72
2016-10-24T11:00:56.078Z,12.6
2016-10-24T11:01:56.112Z,12.54
2016-10-24T11:02:56.068Z,12.49
2016-10-24T11:03:56.067Z,12.34
2016-10-24T11:04:56.092Z,12.07
2016-10-24T11:05:56.060Z,12.04
2016-10-24T11:06:56.053Z,12.04
2016-10-24T11:07:56.043Z,12.14
2016-10-24T11:08:56.037Z,12.17
2016-10-24T11:09:56.035Z,12.17
2016-10-24T11:10:56.031Z,12.14
2016-10-24T11:11:57.402Z,12.05
2016-10-24T11:12:57.328Z,12.01
2016-10-24T11:13:57.182Z,12.04
2016-10-24T11:14:56.007Z,11.83
2016-10-24T11:15:56.000Z,11.9
2016-10-24T11:16:56.029Z,11.82
2016-10-24T11:17:55.998Z,11.69
2016-10-24T11:18:55.987Z,11.69
2016-10-24T11:19:55.979Z,11.7
2016-10-24T11:20:56.559Z,11.75
2016-10-24T11:21:57.096Z,11.7
2016-10-24T11:22:57.413Z,11.72
2016-10-24T11:23:56.366Z,11.58
2016-10-24T11:24:57.118Z,11.51
2016-10-24T11:25:55.944Z,11.43
2016-10-24T11:26:55.948Z,11.39
2016-10-24T11:27:55.936Z,11.37
2016-10-24T11:28:56.224Z,11.32
2016-10-24T11:29:55.930Z,11.29
2016-10-24T11:30:55.914Z,11.28
2016-10-24T11:31:55.913Z,11.28
2016-10-24T11:32:55.908Z,11.33
2016-10-24T11:33:56.201Z,11.35
2016-10-24T11:34:55.895Z,11.4
2016-10-24T11:35:55.890Z,11.43
2016-10-24T11:36:55.883Z,11.32
2016-10-24T11:37:55.879Z,11.4
2016-10-24T11:38:55.871Z,11.4
2016-10-24T11:39:55.862Z,11.27
2016-10-24T11:40:55.863Z,11.29
2016-10-24T11:41:56.149Z,11.22
2016-10-24T11:42:55.841Z,11.36
2016-10-24T11:43:55.838Z,11.32
2016-10-24T11:44:55.835Z,11.37
2016-10-24T11:45:55.829Z,11.24
2016-10-24T11:47:11.988Z,11.27
2016-10-24T11:47:56.816Z,11.27
2016-10-24T11:49:11.072Z,11.22
2016-10-24T11:49:56.356Z,11.37
2016-10-24T11:50:56.445Z,11.37
2016-10-24T11:51:55.789Z,11.37
2016-10-24T11:52:55.786Z,11.27
2016-10-24T11:53:55.785Z,11.28
2016-10-24T11:54:55.872Z,11.27
2016-10-24T11:56:10.675Z,11.06
2016-10-24T11:57:56.104Z,11.06
2016-10-24T11:58:56.445Z,11.02
2016-10-24T11:59:55.738Z,10.94
2016-10-24T12:00:55.738Z,10.92
2016-10-24T12:01:55.735Z,10.91
2016-10-24T12:02:55.719Z,11.09
2016-10-24T12:03:55.717Z,11.04
2016-10-24T12:04:55.710Z,11.09
2016-10-24T12:05:55.702Z,11.15
2016-10-24T12:06:55.695Z,11.18
2016-10-24T12:07:55.696Z,11.32
2016-10-24T12:08:55.679Z,11.33
2016-10-24T12:09:55.810Z,11.32
2016-10-24T12:10:55.668Z,11.44
2016-10-24T12:11:55.670Z,11.49
2016-10-24T12:12:55.651Z,11.52
2016-10-24T12:13:55.656Z,11.55
2016-10-24T12:14:55.642Z,11.55
2016-10-24T12:15:55.650Z,11.44
2016-10-24T12:16:55.941Z,11.49
2016-10-24T12:17:55.626Z,11.54
2016-10-24T12:18:55.620Z,11.65
2016-10-24T12:19:55.613Z,11.82
2016-10-24T12:20:55.904Z,11.82
2016-10-24T12:21:55.599Z,11.79
2016-10-24T12:22:55.608Z,11.76
2016-10-24T12:23:55.591Z,11.8
2016-10-24T12:24:55.580Z,11.7
2016-10-24T12:25:55.576Z,11.79
2016-10-24T12:26:55.566Z,11.7
2016-10-24T12:27:55.559Z,11.79
2016-10-24T12:28:55.558Z,11.78
2016-10-24T12:29:56.858Z,11.96
2016-10-24T12:30:55.822Z,12.04
2016-10-24T12:31:55.537Z,11.98
2016-10-24T12:32:55.569Z,12.07
2016-10-24T12:33:56.428Z,12.1
2016-10-24T12:34:55.592Z,12.04
2016-10-24T12:35:55.526Z,12.14
2016-10-24T12:36:55.506Z,12.1
2016-10-24T12:37:55.510Z,12.21
2016-10-24T12:38:59.812Z,12.19
2016-10-24T12:39:57.008Z,12.2
2016-10-24T12:40:55.490Z,12.29
2016-10-24T12:41:55.794Z,12.27
2016-10-24T12:42:55.471Z,12.42
2016-10-24T12:43:56.221Z,12.45
2016-10-24T12:44:55.466Z,12.56
2016-10-24T12:45:55.465Z,12.65
2016-10-24T12:46:55.453Z,12.59
2016-10-24T12:47:55.450Z,12.49
2016-10-24T12:48:55.439Z,12.49
2016-10-24T12:49:55.452Z,12.45
2016-10-24T12:50:55.435Z,12.47
2016-10-24T12:51:55.423Z,12.42
2016-10-24T12:52:55.416Z,12.46
2016-10-24T12:53:55.414Z,12.45
2016-10-24T12:54:55.408Z,12.39
2016-10-24T12:55:55.443Z,12.34
2016-10-24T12:56:55.403Z,12.23
2016-10-24T12:57:55.398Z,12.1
2016-10-24T12:58:55.424Z,12.12
2016-10-24T12:59:55.390Z,12.16
2016-10-24T13:00:55.380Z,12.14
2016-10-24T13:01:55.369Z,12.04
2016-10-24T13:02:55.363Z,12.1
2016-10-24T13:03:55.356Z,12.01
2016-10-24T13:05:10.262Z,11.99
2016-10-24T13:05:57.142Z,11.99
2016-10-24T13:06:56.692Z,11.79
2016-10-24T13:07:56.834Z,11.9
2016-10-24T13:08:55.330Z,11.9
2016-10-24T13:09:55.668Z,11.79
2016-10-24T13:10:55.616Z,11.78
2016-10-24T13:11:55.310Z,11.69
2016-10-24T13:12:55.313Z,11.47
2016-10-24T13:13:55.302Z,11.51
2016-10-24T13:15:10.216Z,11.4
2016-10-24T13:15:56.498Z,11.43
2016-10-24T13:16:55.738Z,11.39
2016-10-24T13:17:55.679Z,11.4
2016-10-24T13:18:55.527Z,11.42
2016-10-24T13:19:55.263Z,11.42
2016-10-24T13:20:55.311Z,11.4
2016-10-24T13:21:55.556Z,11.42
2016-10-24T13:22:55.247Z,11.33
2016-10-24T13:23:55.541Z,11.33
2016-10-24T13:24:55.532Z,11.33
2016-10-24T13:25:55.228Z,11.32
2016-10-24T13:26:55.220Z,11.27
2016-10-24T13:27:55.214Z,11.37
2016-10-24T13:28:55.514Z,11.43
2016-10-24T13:29:55.203Z,11.35
2016-10-24T13:30:55.257Z,11.39
2016-10-24T13:31:55.192Z,11.43
2016-10-24T13:32:55.184Z,11.25
2016-10-24T13:33:55.179Z,11.32
2016-10-24T13:34:55.172Z,11.29
2016-10-24T13:35:55.173Z,11.28
2016-10-24T13:36:55.158Z,11.28
2016-10-24T13:37:55.152Z,11.39
2016-10-24T13:38:55.148Z,11.28
2016-10-24T13:39:55.446Z,11.28
2016-10-24T13:40:55.132Z,11.33
2016-10-24T13:41:55.119Z,11.33
2016-10-24T13:42:55.121Z,11.36
2016-10-24T13:43:55.123Z,11.29
2016-10-24T13:44:55.112Z,11.18
2016-10-24T13:45:55.100Z,11.04
2016-10-24T13:46:55.093Z,10.85
2016-10-24T13:47:55.088Z,10.81
2016-10-24T13:48:56.300Z,10.73
2016-10-24T13:49:55.105Z,10.6
2016-10-24T13:50:55.315Z,10.52
2016-10-24T13:51:55.067Z,10.51
2016-10-24T13:52:55.055Z,10.4
2016-10-24T13:53:55.081Z,10.44
2016-10-24T13:54:55.501Z,10.44
2016-10-24T13:55:55.535Z,10.38
2016-10-24T13:56:55.027Z,10.4
2016-10-24T13:57:55.522Z,10.33
2016-10-24T13:58:56.636Z,10.32
2016-10-24T13:59:55.614Z,10.32
2016-10-24T14:00:55.448Z,10.26
2016-10-24T14:01:55.165Z,10.2
2016-10-24T14:02:54.976Z,10.22
2016-10-24T14:03:55.066Z,10.27
2016-10-24T14:04:55.179Z,10.38
2016-10-24T14:05:54.971Z,10.26
2016-10-24T14:06:54.954Z,10.33
2016-10-24T14:07:54.946Z,10.17
2016-10-24T14:08:54.938Z,10.25
2016-10-24T14:09:54.932Z,10.22
2016-10-24T14:10:54.920Z,10.25
2016-10-24T14:11:54.921Z,10.22
2016-10-24T14:12:54.914Z,10.17
2016-10-24T14:13:54.908Z,10.23
2016-10-24T14:14:54.896Z,10.25
2016-10-24T14:15:54.897Z,10.26
2016-10-24T14:16:54.875Z,10.18
2016-10-24T14:17:54.869Z,10.2
2016-10-24T14:18:54.865Z,10.18
2016-10-24T14:19:54.851Z,10.12
2016-10-24T14:20:54.861Z,10.11
2016-10-24T14:21:54.848Z,10.01
2016-10-24T14:22:55.133Z,10.11
2016-10-24T14:23:54.980Z,10.01
2016-10-24T14:24:54.822Z,10.02
2016-10-24T14:26:54.803Z,9.9
2016-10-24T14:27:54.797Z,9.94
2016-10-24T14:28:54.783Z,9.89
2016-10-24T14:29:54.873Z,9.83
2016-10-24T14:30:54.773Z,9.86
2016-10-24T14:31:54.766Z,9.78
2016-10-24T14:32:56.604Z,9.83
2016-10-24T14:33:54.754Z,9.76
2016-10-24T14:34:54.743Z,9.76
2016-10-24T14:35:55.184Z,9.79
2016-10-24T14:36:54.723Z,9.9
2016-10-24T14:37:55.570Z,9.79
2016-10-24T14:38:54.858Z,9.78
2016-10-24T14:39:54.696Z,9.79
2016-10-24T14:40:54.698Z,9.78
2016-10-24T14:41:54.688Z,9.71
2016-10-24T14:42:54.685Z,9.76
2016-10-24T14:43:54.672Z,9.66
2016-10-24T14:44:54.657Z,9.68
2016-10-24T14:45:54.691Z,9.72
2016-10-24T14:46:54.645Z,9.78
2016-10-24T14:47:54.643Z,9.76
2016-10-24T14:48:54.630Z,9.71
2016-10-24T14:49:54.925Z,9.68
2016-10-24T14:50:54.618Z,9.69
2016-10-24T14:51:54.611Z,9.75
2016-10-24T14:52:54.596Z,9.72
2016-10-24T14:53:54.599Z,9.65
2016-10-24T14:54:54.617Z,9.71
2016-10-24T14:55:54.579Z,9.84
2016-10-24T14:56:54.571Z,9.71
2016-10-24T14:57:54.554Z,9.71
2016-10-24T14:58:54.552Z,9.66
2016-10-24T14:59:54.543Z,9.72
2016-10-24T15:00:54.533Z,9.64
2016-10-24T15:01:54.839Z,9.64
2016-10-24T15:02:54.511Z,9.71
2016-10-24T15:03:54.509Z,9.71
2016-10-24T15:04:54.542Z,9.72
2016-10-24T15:05:54.493Z,9.66
2016-10-24T15:06:56.008Z,9.6
2016-10-24T15:07:55.478Z,9.57
2016-10-24T15:08:56.968Z,9.57
2016-10-24T15:09:55.003Z,9.57
2016-10-24T15:10:55.049Z,9.58
2016-10-24T15:11:54.444Z,9.57
2016-10-24T15:12:54.432Z,9.61
2016-10-24T15:13:54.436Z,9.47
2016-10-24T15:14:54.426Z,9.51
2016-10-24T15:15:55.928Z,9.4
2016-10-24T15:16:54.533Z,9.4
2016-10-24T15:17:56.623Z,9.36
2016-10-24T15:18:55.231Z,9.43
2016-10-24T15:19:55.753Z,9.4
2016-10-24T15:20:54.373Z,9.4
2016-10-24T15:21:54.763Z,9.4
2016-10-24T15:22:54.371Z,9.5
2016-10-24T15:23:54.359Z,9.5
2016-10-24T15:24:54.337Z,9.5
2016-10-24T15:25:54.329Z,9.5
2016-10-24T15:26:54.322Z,9.43
2016-10-24T15:27:54.318Z,9.32
2016-10-24T15:28:54.305Z,9.32
2016-10-24T15:29:54.295Z,9.46
2016-10-24T15:30:54.293Z,9.46
2016-10-24T15:31:54.286Z,9.42
2016-10-24T15:32:54.270Z,9.5
2016-10-24T15:33:54.263Z,9.35
2016-10-24T15:34:54.260Z,9.38
2016-10-24T15:35:54.544Z,9.32
2016-10-24T15:36:54.238Z,9.35
2016-10-24T15:37:54.242Z,9.36
2016-10-24T15:38:54.229Z,9.36
2016-10-24T15:39:54.208Z,9.33
2016-10-24T15:40:54.205Z,9.35
2016-10-24T15:42:54.287Z,9.26
2016-10-24T15:43:54.528Z,9.32
2016-10-24T15:44:54.181Z,9.31
2016-10-24T15:45:54.613Z,9.33
2016-10-24T15:46:54.353Z,9.38
2016-10-24T15:47:54.297Z,9.35
2016-10-24T15:48:54.135Z,9.4
2016-10-24T15:49:54.132Z,9.32
2016-10-24T15:51:09.035Z,9.31
2016-10-24T15:51:54.969Z,9.31
2016-10-24T15:52:54.452Z,9.33
2016-10-24T15:53:54.278Z,9.29
2016-10-24T15:54:54.086Z,9.28
2016-10-24T15:55:54.076Z,9.15
2016-10-24T15:56:54.069Z,9.21
2016-10-24T15:57:54.058Z,9.18
2016-10-24T15:58:54.048Z,9.26
2016-10-24T15:59:54.047Z,9.18
2016-10-24T16:00:54.034Z,9.18
2016-10-24T16:01:54.019Z,9.15
2016-10-24T16:02:54.020Z,9.18
2016-10-24T16:03:54.047Z,9.13
2016-10-24T16:04:54.004Z,9.17
2016-10-24T16:05:53.988Z,9.18
2016-10-24T16:06:53.984Z,9.2
2016-10-24T16:07:53.983Z,9.15
2016-10-24T16:08:53.967Z,9.24
2016-10-24T16:09:53.955Z,9.15
2016-10-24T16:10:54.242Z,9.21
2016-10-24T16:11:53.946Z,9.28
2016-10-24T16:12:53.926Z,9.28
2016-10-24T16:13:53.926Z,9.31
2016-10-24T16:14:53.923Z,9.31
2016-10-24T16:15:53.908Z,9.31
2016-10-24T16:16:53.894Z,9.32
2016-10-24T16:17:53.884Z,9.32
2016-10-24T16:18:53.918Z,9.35
2016-10-24T16:19:53.873Z,9.33
2016-10-24T16:20:53.895Z,9.29
2016-10-24T16:21:53.855Z,9.29
2016-10-24T16:22:53.844Z,9.33
2016-10-24T16:23:53.828Z,9.29
2016-10-24T16:24:55.733Z,9.31
2016-10-24T16:26:53.805Z,9.35
2016-10-24T16:27:54.849Z,9.32
2016-10-24T16:28:53.914Z,9.29
2016-10-24T16:29:53.992Z,9.32
2016-10-24T16:30:53.877Z,9.4
2016-10-24T16:31:53.762Z,9.35
2016-10-24T16:32:53.759Z,9.28
2016-10-24T16:33:55.264Z,9.32
2016-10-24T16:34:55.127Z,9.28
2016-10-24T16:35:54.869Z,9.36
2016-10-24T16:36:54.599Z,9.32
2016-10-24T16:37:54.129Z,9.4
2016-10-24T16:38:53.699Z,9.38
2016-10-24T16:39:53.696Z,9.33
2016-10-24T16:40:53.694Z,9.29
2016-10-24T16:41:53.821Z,9.32
2016-10-24T16:42:53.671Z,9.26
2016-10-24T16:43:53.664Z,9.32
2016-10-24T16:44:53.655Z,9.33
2016-10-24T16:45:53.647Z,9.32
2016-10-24T16:46:53.638Z,9.32
2016-10-24T16:47:53.627Z,9.32
2016-10-24T16:48:53.615Z,9.36
2016-10-24T16:49:53.611Z,9.35
2016-10-24T16:50:53.605Z,9.36
2016-10-24T16:51:53.894Z,9.38
2016-10-24T16:52:53.581Z,9.47
2016-10-24T16:53:53.877Z,9.36
2016-10-24T16:54:53.562Z,9.36
2016-10-24T16:55:53.565Z,9.4
2016-10-24T16:56:53.552Z,9.4
2016-10-24T16:57:53.541Z,9.35
2016-10-24T16:58:53.529Z,9.42
2016-10-24T16:59:54.072Z,9.32
2016-10-24T17:00:54.671Z,9.39
2016-10-24T17:01:53.811Z,9.42
2016-10-24T17:02:53.603Z,9.33
2016-10-24T17:03:53.488Z,9.32
2016-10-24T17:05:08.401Z,9.32
2016-10-24T17:05:53.467Z,9.35
2016-10-24T17:06:53.462Z,9.33
2016-10-24T17:07:53.608Z,9.31
2016-10-24T17:08:53.637Z,9.32
2016-10-24T17:09:54.490Z,9.39
2016-10-24T17:10:53.524Z,9.36
2016-10-24T17:11:54.073Z,9.4
2016-10-24T17:12:53.605Z,9.28
2016-10-24T17:13:53.408Z,9.4
2016-10-24T17:14:53.542Z,9.38
2016-10-24T17:15:53.386Z,9.43
2016-10-24T17:16:53.383Z,9.42
2016-10-24T17:17:53.379Z,9.39
2016-10-24T17:18:53.360Z,9.5
2016-10-24T17:19:53.351Z,9.5
2016-10-24T17:20:53.345Z,9.43
2016-10-24T17:21:53.332Z,9.48
2016-10-24T17:22:53.317Z,9.42
2016-10-24T17:23:53.310Z,9.5
2016-10-24T17:24:53.305Z,9.43
2016-10-24T17:25:53.295Z,9.42
2016-10-24T17:26:53.292Z,9.39
2016-10-24T17:27:53.282Z,9.48
2016-10-24T17:28:53.279Z,9.5
2016-10-24T17:29:53.264Z,9.48
2016-10-24T17:30:53.255Z,9.5
2016-10-24T17:31:53.252Z,9.47
2016-10-24T17:32:53.242Z,9.5
2016-10-24T17:33:53.227Z,9.48
2016-10-24T17:34:53.522Z,9.47
2016-10-24T17:35:53.212Z,9.51
2016-10-24T17:36:53.307Z,9.51
2016-10-24T17:37:53.197Z,9.48
2016-10-24T17:38:53.189Z,9.5
2016-10-24T17:39:53.180Z,9.53
2016-10-24T17:40:53.171Z,9.51
2016-10-24T17:41:53.164Z,9.47
2016-10-24T17:42:54.126Z,9.46
2016-10-24T17:44:53.810Z,9.51
2016-10-24T17:45:53.962Z,9.47
2016-10-24T17:46:53.111Z,9.47
2016-10-24T17:47:53.117Z,9.5
2016-10-24T17:48:53.117Z,9.47
2016-10-24T17:49:53.090Z,9.47
2016-10-24T17:50:53.083Z,9.48
2016-10-24T17:51:53.074Z,9.47
2016-10-24T17:52:53.992Z,9.5
2016-10-24T17:53:54.575Z,9.54
2016-10-24T17:54:53.434Z,9.46
2016-10-24T17:55:53.039Z,9.43
2016-10-24T17:56:53.028Z,9.48
2016-10-24T17:57:53.648Z,9.38
2016-10-24T17:58:53.008Z,9.5
2016-10-24T17:59:52.998Z,9.46
2016-10-24T18:00:52.995Z,9.47
2016-10-24T18:01:52.991Z,9.46
2016-10-24T18:02:52.982Z,9.5
2016-10-24T18:03:52.970Z,9.51
2016-10-24T18:04:52.962Z,9.46
2016-10-24T18:05:52.955Z,9.46
2016-10-24T18:06:52.940Z,9.48
2016-10-24T18:07:52.931Z,9.54
2016-10-24T18:08:52.924Z,9.58
2016-10-24T18:09:52.923Z,9.6
2016-10-24T18:10:52.904Z,9.58
2016-10-24T18:11:52.900Z,9.43
2016-10-24T18:12:52.932Z,9.54
2016-10-24T18:13:52.886Z,9.56
2016-10-24T18:14:52.875Z,9.46
2016-10-24T18:15:52.898Z,9.48
2016-10-24T18:16:52.858Z,9.46
2016-10-24T18:17:52.858Z,9.5
2016-10-24T18:18:52.938Z,9.5
2016-10-24T18:19:53.087Z,9.47
2016-10-24T18:20:53.473Z,9.51
2016-10-24T18:21:53.421Z,9.42
2016-10-24T18:22:53.206Z,9.48
2016-10-24T18:23:52.797Z,9.46
2016-10-24T18:24:52.984Z,9.53
2016-10-24T18:25:52.774Z,9.47
2016-10-24T18:26:52.771Z,9.42
2016-10-24T18:27:53.313Z,9.46
2016-10-24T18:28:53.255Z,9.5
2016-10-24T18:29:52.850Z,9.46
2016-10-24T18:30:52.843Z,9.53
2016-10-24T18:31:52.727Z,9.4
2016-10-24T18:32:52.748Z,9.48
2016-10-24T18:33:52.746Z,9.48
2016-10-24T18:34:52.706Z,9.57
2016-10-24T18:35:52.694Z,9.54
2016-10-24T18:36:52.684Z,9.54
2016-10-24T18:37:52.671Z,9.58
2016-10-24T18:38:52.675Z,9.61
2016-10-24T18:39:52.654Z,9.54
2016-10-24T18:40:52.647Z,9.65
2016-10-24T18:41:52.643Z,9.58
2016-10-24T18:42:52.631Z,9.54
2016-10-24T18:43:52.621Z,9.58
2016-10-24T18:44:52.615Z,9.64
2016-10-24T18:45:52.607Z,9.58
2016-10-24T18:46:52.604Z,9.57
2016-10-24T18:47:52.586Z,9.56
2016-10-24T18:48:52.580Z,9.51
2016-10-24T18:49:52.578Z,9.51
2016-10-24T18:50:52.567Z,9.54
2016-10-24T18:51:52.557Z,9.57
2016-10-24T18:52:52.550Z,9.6
2016-10-24T18:53:52.569Z,9.6
2016-10-24T18:54:52.534Z,9.64
2016-10-24T18:55:52.516Z,9.61
2016-10-24T18:56:52.513Z,9.68
2016-10-24T18:57:52.502Z,9.68
2016-10-24T18:58:52.490Z,9.69
2016-10-24T18:59:52.495Z,9.65
2016-10-24T19:00:52.486Z,9.69
2016-10-24T19:01:54.723Z,9.6
2016-10-24T19:02:53.835Z,9.68
2016-10-24T19:03:54.949Z,9.72
2016-10-24T19:04:52.752Z,9.66
2016-10-24T19:05:52.584Z,9.69
2016-10-24T19:06:52.423Z,9.74
2016-10-24T19:07:52.560Z,9.69
2016-10-24T19:08:52.410Z,9.75
2016-10-24T19:09:52.403Z,9.71
2016-10-24T19:10:52.720Z,9.71
2016-10-24T19:11:52.424Z,9.65
2016-10-24T19:12:54.099Z,9.68
2016-10-24T19:13:52.377Z,9.71
2016-10-24T19:14:52.649Z,9.78
2016-10-24T19:15:52.359Z,9.68
2016-10-24T19:16:52.349Z,9.65
2016-10-24T19:17:52.340Z,9.71
2016-10-24T19:18:52.625Z,9.68
2016-10-24T19:19:52.320Z,9.65
2016-10-24T19:20:52.311Z,9.66
2016-10-24T19:21:52.298Z,9.6
2016-10-24T19:22:52.286Z,9.66
2016-10-24T19:23:52.285Z,9.75
2016-10-24T19:24:52.270Z,9.68
2016-10-24T19:25:52.262Z,9.81
2016-10-24T19:26:52.256Z,9.79
2016-10-24T19:27:52.252Z,9.79
2016-10-24T19:28:52.238Z,9.89
2016-10-24T19:29:52.233Z,9.78
2016-10-24T19:30:52.225Z,9.86
2016-10-24T19:31:52.207Z,9.87
2016-10-24T19:32:52.215Z,9.86
2016-10-24T19:33:52.198Z,9.78
2016-10-24T19:34:52.188Z,9.84
2016-10-24T19:35:52.178Z,9.78
2016-10-24T19:36:52.369Z,9.83
2016-10-24T19:37:53.016Z,9.78
2016-10-24T19:38:52.194Z,9.76
2016-10-24T19:39:52.150Z,9.83
2016-10-24T19:40:52.140Z,9.78
2016-10-24T19:41:52.237Z,9.84
2016-10-24T19:42:52.123Z,9.74
2016-10-24T19:43:52.118Z,9.81
2016-10-24T19:44:52.106Z,9.83
2016-10-24T19:45:53.398Z,9.84
2016-10-24T19:46:52.096Z,9.83
2016-10-24T19:48:52.623Z,9.87
2016-10-24T19:49:52.669Z,9.79
2016-10-24T19:50:52.064Z,9.78
2016-10-24T19:51:52.047Z,9.79
2016-10-24T19:52:52.043Z,9.76
2016-10-24T19:53:52.038Z,9.81
2016-10-24T19:54:52.021Z,9.75
2016-10-24T19:55:52.018Z,9.83
2016-10-24T19:56:52.000Z,9.76
2016-10-24T19:57:52.000Z,9.74
2016-10-24T19:58:51.994Z,9.76
2016-10-24T19:59:51.989Z,9.79
2016-10-24T20:00:51.974Z,9.78
2016-10-24T20:01:51.960Z,9.78
2016-10-24T20:02:51.956Z,9.79
2016-10-24T20:03:52.245Z,9.76
2016-10-24T20:04:51.939Z,9.76
2016-10-24T20:05:51.926Z,9.84
2016-10-24T20:06:51.922Z,9.86
2016-10-24T20:07:51.913Z,9.78
2016-10-24T20:08:51.906Z,9.76
2016-10-24T20:09:51.896Z,9.87
2016-10-24T20:10:51.883Z,9.83
2016-10-24T20:11:51.880Z,9.86
2016-10-24T20:12:51.869Z,9.86
2016-10-24T20:13:51.863Z,9.78
2016-10-24T20:14:51.866Z,9.79
2016-10-24T20:15:51.855Z,9.81
2016-10-24T20:16:51.829Z,9.78
2016-10-24T20:17:51.830Z,9.83
2016-10-24T20:18:52.121Z,9.79
2016-10-24T20:20:53.947Z,9.84
2016-10-24T20:21:52.818Z,9.84
2016-10-24T20:22:51.814Z,9.84
2016-10-24T20:23:52.585Z,9.87
2016-10-24T20:24:51.774Z,9.9
2016-10-24T20:25:52.409Z,9.79
2016-10-24T20:26:51.753Z,9.84
2016-10-24T20:27:51.801Z,9.91
2016-10-24T20:28:53.255Z,9.87
2016-10-24T20:29:52.765Z,9.96
2016-10-24T20:30:52.096Z,9.99
2016-10-24T20:31:51.715Z,10.01
2016-10-24T20:32:52.012Z,10.04
2016-10-24T20:33:51.689Z,9.94
2016-10-24T20:34:51.722Z,10.01
2016-10-24T20:35:51.680Z,9.91
2016-10-24T20:36:51.972Z,9.91
2016-10-24T20:37:51.661Z,9.93
2016-10-24T20:38:51.654Z,9.86
2016-10-24T20:39:51.656Z,9.89
2016-10-24T20:40:51.638Z,10.04
2016-10-24T20:41:51.631Z,10.04
2016-10-24T20:42:51.626Z,10.04
2016-10-24T20:43:51.611Z,10.12
2016-10-24T20:44:51.601Z,10.09
2016-10-24T20:45:51.601Z,10.12
2016-10-24T20:46:51.600Z,10.2
2016-10-24T20:47:51.582Z,10.3
2016-10-24T20:48:51.568Z,10.15
2016-10-24T20:49:51.559Z,10.25
2016-10-24T20:50:51.553Z,10.22
2016-10-24T20:51:51.552Z,10.18
2016-10-24T20:52:51.542Z,10.22
2016-10-24T20:53:51.527Z,10.23
2016-10-24T20:54:52.524Z,10.23
2016-10-24T20:55:51.903Z,10.25
2016-10-24T20:56:52.006Z,10.18
2016-10-24T20:57:51.995Z,10.22
2016-10-24T20:58:51.495Z,10.15
2016-10-24T20:59:51.728Z,10.27
2016-10-24T21:00:51.471Z,10.18
2016-10-24T21:01:51.463Z,10.27
2016-10-24T21:02:51.459Z,10.18
2016-10-24T21:03:52.148Z,10.3
2016-10-24T21:05:06.357Z,10.23
2016-10-24T21:05:51.477Z,10.25
2016-10-24T21:06:51.526Z,10.22
2016-10-24T21:07:52.018Z,10.15
2016-10-24T21:08:51.407Z,10.12
2016-10-24T21:09:51.752Z,10.22
2016-10-24T21:10:51.687Z,10.25
2016-10-24T21:11:51.383Z,10.3
2016-10-24T21:12:51.372Z,10.27
2016-10-24T21:13:51.368Z,10.3
2016-10-24T21:14:51.399Z,10.27
2016-10-24T21:15:51.388Z,10.25
2016-10-24T21:16:51.351Z,10.29
2016-10-24T21:17:51.329Z,10.23
2016-10-24T21:18:51.329Z,10.2
2016-10-24T21:19:51.324Z,10.27
2016-10-24T21:20:51.315Z,10.34
2016-10-24T21:21:51.303Z,10.3
2016-10-24T21:22:51.297Z,10.27
2016-10-24T21:23:51.292Z,10.32
2016-10-24T21:24:51.280Z,10.29
2016-10-24T21:25:51.275Z,10.33
2016-10-24T21:26:51.265Z,10.3
2016-10-24T21:27:51.256Z,10.26
2016-10-24T21:28:51.249Z,10.23
2016-10-24T21:29:51.236Z,10.29
2016-10-24T21:30:51.233Z,10.25
2016-10-24T21:31:51.222Z,10.32
2016-10-24T21:32:51.214Z,10.29
2016-10-24T21:33:51.207Z,10.25
2016-10-24T21:34:51.199Z,10.26
2016-10-24T21:35:51.196Z,10.18
2016-10-24T21:36:51.180Z,10.23
2016-10-24T21:37:52.088Z,10.2
2016-10-24T21:38:53.328Z,10.18
2016-10-24T21:39:51.159Z,10.18
2016-10-24T21:40:51.162Z,10.26
2016-10-24T21:41:52.462Z,10.18
2016-10-24T21:42:51.130Z,10.14
2016-10-24T21:43:51.174Z,10.08
2016-10-24T21:44:51.116Z,10.07
2016-10-24T21:45:51.111Z,10.09
2016-10-24T21:46:51.272Z,10.08
2016-10-24T21:47:51.187Z,10.09
2016-10-24T21:48:51.590Z,10.04
2016-10-24T21:49:51.976Z,10.09
2016-10-24T21:50:52.095Z,10.04
2016-10-24T21:51:51.055Z,10.11
2016-10-24T21:52:51.767Z,10.07
2016-10-24T21:53:51.047Z,10.14
2016-10-24T21:54:51.040Z,10.12
2016-10-24T21:55:51.032Z,10.11
2016-10-24T21:56:51.025Z,10.09
2016-10-24T21:57:51.009Z,10.09
2016-10-24T21:58:51.010Z,10.14
2016-10-24T21:59:50.994Z,10.09
2016-10-24T22:00:50.996Z,10.09
2016-10-24T22:01:50.977Z,10.05
2016-10-24T22:02:50.978Z,10.09
2016-10-24T22:03:50.999Z,10.09
2016-10-24T22:04:50.962Z,10.09
2016-10-24T22:05:50.949Z,9.99
2016-10-24T22:06:50.943Z,10.12
2016-10-24T22:07:50.941Z,10.14
2016-10-24T22:08:50.919Z,10.15
2016-10-24T22:09:50.911Z,10.07
2016-10-24T22:10:50.913Z,10.14
2016-10-24T22:11:50.893Z,10.09
2016-10-24T22:12:50.887Z,10.07
2016-10-24T22:13:50.993Z,10.07
2016-10-24T22:14:52.626Z,10.15
2016-10-24T22:15:51.015Z,10.09
2016-10-24T22:16:51.607Z,10.08
2016-10-24T22:17:51.152Z,10.08
2016-10-24T22:18:50.841Z,10.11
2016-10-24T22:19:50.868Z,10.12
2016-10-24T22:20:50.826Z,10.05
2016-10-24T22:21:50.815Z,10.04
2016-10-24T22:22:51.911Z,10.12
2016-10-24T22:23:51.703Z,10.08
2016-10-24T22:24:51.195Z,10.15
2016-10-24T22:25:51.336Z,10.11
2016-10-24T22:26:51.335Z,10.07
2016-10-24T22:27:50.928Z,10.09
2016-10-24T22:28:50.762Z,10.05
2016-10-24T22:29:51.060Z,10.12
2016-10-24T22:30:50.741Z,10.2
2016-10-24T22:31:50.734Z,10.2
2016-10-24T22:32:50.757Z,10.2
2016-10-24T22:33:50.723Z,10.17
2016-10-24T22:34:50.715Z,10.18
2016-10-24T22:35:50.705Z,10.2
2016-10-24T22:36:50.695Z,10.26
2016-10-24T22:37:50.686Z,10.18
2016-10-24T22:38:50.683Z,10.2
2016-10-24T22:39:50.674Z,10.23
2016-10-24T22:40:50.971Z,10.17
2016-10-24T22:41:50.652Z,10.27
2016-10-24T22:42:50.648Z,10.2
2016-10-24T22:43:50.949Z,10.27
2016-10-24T22:44:50.642Z,10.29
2016-10-24T22:45:50.624Z,10.3
2016-10-24T22:46:50.620Z,10.32